sensor_id;sensor_type;location;lat;lon;timestamp;temperature;humidity
55331;DHT22;58851;42.984;20.336;2023-03-14T00:01:53;76.80;6476.80
55331;DHT22;58851;42.984;20.336;2023-03-14T00:04:18;52.10;6476.80
55331;DHT22;58851;42.984;20.336;2023-03-14T00:06:44;52.00;6476.80
55331;DHT22;58851;42.984;20.336;2023-03-14T00:09:13;52.00;6476.80
55331;DHT22;58851;42.984;20.336;2023-03-14T00:11:40;52.00;6476.80
55331;DHT22;58851;42.984;20.336;2023-03-14T00:14:06;52.00;6476.80
55331;DHT22;58851;42.984;20.336;2023-03-14T00:16:31;51.90;6476.80
55331;DHT22;58851;42.984;20.336;2023-03-14T00:19:00;52.00;6476.80
55331;DHT22;58851;42.984;20.336;2023-03-14T00:21:26;51.90;6476.80
55331;DHT22;58851;42.984;20.336;2023-03-14T00:23:52;51.90;6476.80
55331;DHT22;58851;42.984;20.336;2023-03-14T00:26:20;51.90;6476.80
55331;DHT22;58851;42.984;20.336;2023-03-14T00:28:46;51.80;6476.80
55331;DHT22;58851;42.984;20.336;2023-03-14T00:31:15;51.80;6476.80
55331;DHT22;58851;42.984;20.336;2023-03-14T00:33:42;51.70;6476.80
55331;DHT22;58851;42.984;20.336;2023-03-14T00:36:10;51.70;6476.80
55331;DHT22;58851;42.984;20.336;2023-03-14T00:38:37;51.70;6476.80
55331;DHT22;58851;42.984;20.336;2023-03-14T00:41:06;51.70;6476.80
55331;DHT22;58851;42.984;20.336;2023-03-14T00:43:32;51.70;6476.80
55331;DHT22;58851;42.984;20.336;2023-03-14T00:45:57;51.70;6476.80
55331;DHT22;58851;42.984;20.336;2023-03-14T00:48:23;51.70;6476.80
55331;DHT22;58851;42.984;20.336;2023-03-14T00:50:49;51.70;6476.80
55331;DHT22;58851;42.984;20.336;2023-03-14T00:53:15;51.70;6476.80
55331;DHT22;58851;42.984;20.336;2023-03-14T00:55:42;51.60;6476.80
55331;DHT22;58851;42.984;20.336;2023-03-14T00:58:09;51.60;6476.80
55331;DHT22;58851;42.984;20.336;2023-03-14T01:00:36;51.60;6476.80
55331;DHT22;58851;42.984;20.336;2023-03-14T01:03:02;51.50;6476.80
55331;DHT22;58851;42.984;20.336;2023-03-14T01:05:28;51.60;6476.80
55331;DHT22;58851;42.984;20.336;2023-03-14T01:07:54;51.40;6476.80
55331;DHT22;58851;42.984;20.336;2023-03-14T01:10:20;51.50;6476.80
55331;DHT22;58851;42.984;20.336;2023-03-14T01:12:45;51.50;6476.80
55331;DHT22;58851;42.984;20.336;2023-03-14T01:15:11;51.40;6476.80
55331;DHT22;58851;42.984;20.336;2023-03-14T01:17:37;51.50;6476.80
55331;DHT22;58851;42.984;20.336;2023-03-14T01:20:05;51.40;6476.80
55331;DHT22;58851;42.984;20.336;2023-03-14T01:22:31;51.40;6476.80
55331;DHT22;58851;42.984;20.336;2023-03-14T01:24:57;51.30;6476.80
55331;DHT22;58851;42.984;20.336;2023-03-14T01:27:23;51.40;6476.80
55331;DHT22;58851;42.984;20.336;2023-03-14T01:29:48;51.30;6476.80
55331;DHT22;58851;42.984;20.336;2023-03-14T01:32:14;51.30;6476.80
55331;DHT22;58851;42.984;20.336;2023-03-14T01:34:40;51.30;6476.80
55331;DHT22;58851;42.984;20.336;2023-03-14T01:37:05;51.30;6476.80
55331;DHT22;58851;42.984;20.336;2023-03-14T01:39:33;51.30;6476.80
55331;DHT22;58851;42.984;20.336;2023-03-14T01:42:00;51.30;6476.80
55331;DHT22;58851;42.984;20.336;2023-03-14T01:44:26;51.30;6476.80
55331;DHT22;58851;42.984;20.336;2023-03-14T01:46:52;51.20;6476.80
55331;DHT22;58851;42.984;20.336;2023-03-14T01:49:31;51.20;6476.80
55331;DHT22;58851;42.984;20.336;2023-03-14T01:55:06;26.50;6451.20
55331;DHT22;58851;42.984;20.336;2023-03-14T01:57:37;26.50;6451.20
55331;DHT22;58851;42.984;20.336;2023-03-14T02:00:15;26.50;6451.20
55331;DHT22;58851;42.984;20.336;2023-03-14T02:02:45;26.40;6451.20
55331;DHT22;58851;42.984;20.336;2023-03-14T02:05:12;26.40;6451.20
55331;DHT22;58851;42.984;20.336;2023-03-14T02:07:53;26.30;6451.20
55331;DHT22;58851;42.984;20.336;2023-03-14T02:10:22;26.30;6451.20
55331;DHT22;58851;42.984;20.336;2023-03-14T02:12:50;26.40;6451.20
55331;DHT22;58851;42.984;20.336;2023-03-14T02:15:17;26.40;6451.20
55331;DHT22;58851;42.984;20.336;2023-03-14T02:17:44;26.40;6451.20
55331;DHT22;58851;42.984;20.336;2023-03-14T02:20:34;26.30;6451.20
55331;DHT22;58851;42.984;20.336;2023-03-14T02:23:04;26.30;6451.20
55331;DHT22;58851;42.984;20.336;2023-03-14T02:25:51;26.30;6451.20
55331;DHT22;58851;42.984;20.336;2023-03-14T02:28:19;26.30;6451.20
55331;DHT22;58851;42.984;20.336;2023-03-14T02:30:46;26.10;6451.20
55331;DHT22;58851;42.984;20.336;2023-03-14T02:33:18;26.00;6451.20
55331;DHT22;58851;42.984;20.336;2023-03-14T02:35:57;26.10;6451.20
55331;DHT22;58851;42.984;20.336;2023-03-14T02:41:05;26.10;6451.20
55331;DHT22;58851;42.984;20.336;2023-03-14T02:43:31;26.10;6451.20
55331;DHT22;58851;42.984;20.336;2023-03-14T02:45:56;26.10;6451.20
55331;DHT22;58851;42.984;20.336;2023-03-14T02:48:36;26.10;6451.20
55331;DHT22;58851;42.984;20.336;2023-03-14T02:51:03;26.10;6451.20
55331;DHT22;58851;42.984;20.336;2023-03-14T02:53:32;26.20;6451.20
55331;DHT22;58851;42.984;20.336;2023-03-14T02:55:59;26.20;6451.20
55331;DHT22;58851;42.984;20.336;2023-03-14T02:58:26;26.20;6451.20
55331;DHT22;58851;42.984;20.336;2023-03-14T03:00:52;26.20;6451.20
55331;DHT22;58851;42.984;20.336;2023-03-14T03:03:18;26.20;6451.20
55331;DHT22;58851;42.984;20.336;2023-03-14T03:05:51;26.20;6451.20
55331;DHT22;58851;42.984;20.336;2023-03-14T03:08:21;26.20;6451.20
55331;DHT22;58851;42.984;20.336;2023-03-14T03:10:47;26.10;6451.20
55331;DHT22;58851;42.984;20.336;2023-03-14T03:13:14;26.10;6451.20
55331;DHT22;58851;42.984;20.336;2023-03-14T03:15:40;26.10;6451.20
55331;DHT22;58851;42.984;20.336;2023-03-14T03:18:07;26.10;6451.20
55331;DHT22;58851;42.984;20.336;2023-03-14T03:20:32;26.00;6451.20
55331;DHT22;58851;42.984;20.336;2023-03-14T03:22:59;26.00;6451.20
55331;DHT22;58851;42.984;20.336;2023-03-14T03:25:25;26.10;6451.20
55331;DHT22;58851;42.984;20.336;2023-03-14T03:27:51;26.10;6451.20
55331;DHT22;58851;42.984;20.336;2023-03-14T03:30:17;26.10;6451.20
55331;DHT22;58851;42.984;20.336;2023-03-14T03:32:44;26.10;6451.20
55331;DHT22;58851;42.984;20.336;2023-03-14T03:35:09;26.10;6451.20
55331;DHT22;58851;42.984;20.336;2023-03-14T03:37:36;26.10;6451.20
55331;DHT22;58851;42.984;20.336;2023-03-14T03:40:02;26.10;6451.20
55331;DHT22;58851;42.984;20.336;2023-03-14T03:42:32;26.10;6451.20
55331;DHT22;58851;42.984;20.336;2023-03-14T03:44:58;26.10;6451.20
55331;DHT22;58851;42.984;20.336;2023-03-14T03:47:24;26.00;6451.20
55331;DHT22;58851;42.984;20.336;2023-03-14T03:49:50;26.10;6451.20
55331;DHT22;58851;42.984;20.336;2023-03-14T03:52:16;26.00;6451.20
55331;DHT22;58851;42.984;20.336;2023-03-14T03:54:41;26.00;6451.20
55331;DHT22;58851;42.984;20.336;2023-03-14T03:57:07;26.10;6451.20
55331;DHT22;58851;42.984;20.336;2023-03-14T03:59:33;26.10;6451.20
55331;DHT22;58851;42.984;20.336;2023-03-14T04:01:59;26.00;6451.20
55331;DHT22;58851;42.984;20.336;2023-03-14T04:04:25;26.00;6451.20
55331;DHT22;58851;42.984;20.336;2023-03-14T04:06:50;26.00;6451.20
55331;DHT22;58851;42.984;20.336;2023-03-14T04:09:16;26.00;6451.20
55331;DHT22;58851;42.984;20.336;2023-03-14T04:11:42;25.90;6451.20
55331;DHT22;58851;42.984;20.336;2023-03-14T04:14:08;25.90;6451.20
55331;DHT22;58851;42.984;20.336;2023-03-14T04:16:34;26.00;6451.20
55331;DHT22;58851;42.984;20.336;2023-03-14T04:19:01;26.00;6451.20
55331;DHT22;58851;42.984;20.336;2023-03-14T04:21:26;26.00;6451.20
55331;DHT22;58851;42.984;20.336;2023-03-14T04:23:52;26.00;6451.20
55331;DHT22;58851;42.984;20.336;2023-03-14T04:26:18;25.90;6451.20
55331;DHT22;58851;42.984;20.336;2023-03-14T04:28:44;26.00;6451.20
55331;DHT22;58851;42.984;20.336;2023-03-14T04:31:12;26.00;6451.20
55331;DHT22;58851;42.984;20.336;2023-03-14T04:33:38;26.00;6451.20
55331;DHT22;58851;42.984;20.336;2023-03-14T04:36:05;25.80;6451.20
55331;DHT22;58851;42.984;20.336;2023-03-14T04:38:31;25.80;6451.20
55331;DHT22;58851;42.984;20.336;2023-03-14T04:40:57;25.80;6451.20
55331;DHT22;58851;42.984;20.336;2023-03-14T04:43:24;25.70;6451.20
55331;DHT22;58851;42.984;20.336;2023-03-14T04:45:54;25.60;6451.20
55331;DHT22;58851;42.984;20.336;2023-03-14T04:48:20;25.60;6451.20
55331;DHT22;58851;42.984;20.336;2023-03-14T04:50:47;25.60;6451.20
55331;DHT22;58851;42.984;20.336;2023-03-14T04:53:13;25.60;6451.20
55331;DHT22;58851;42.984;20.336;2023-03-14T04:55:39;25.60;6451.20
55331;DHT22;58851;42.984;20.336;2023-03-14T04:58:05;25.60;6451.20
55331;DHT22;58851;42.984;20.336;2023-03-14T05:00:31;25.60;6451.20
55331;DHT22;58851;42.984;20.336;2023-03-14T05:02:57;25.60;6451.20
55331;DHT22;58851;42.984;20.336;2023-03-14T05:05:23;25.60;6451.20
55331;DHT22;58851;42.984;20.336;2023-03-14T05:07:48;25.60;6451.20
55331;DHT22;58851;42.984;20.336;2023-03-14T05:10:14;25.60;6451.20
55331;DHT22;58851;42.984;20.336;2023-03-14T05:12:40;25.60;6451.20
55331;DHT22;58851;42.984;20.336;2023-03-14T05:15:06;25.60;6451.20
55331;DHT22;58851;42.984;20.336;2023-03-14T05:17:33;25.60;6451.20
55331;DHT22;58851;42.984;20.336;2023-03-14T05:19:58;25.60;6451.20
55331;DHT22;58851;42.984;20.336;2023-03-14T05:22:24;25.60;6451.20
55331;DHT22;58851;42.984;20.336;2023-03-14T05:24:50;0.90;6451.20
55331;DHT22;58851;42.984;20.336;2023-03-14T05:27:16;0.90;6451.20
55331;DHT22;58851;42.984;20.336;2023-03-14T05:29:41;25.60;6451.20
55331;DHT22;58851;42.984;20.336;2023-03-14T05:32:07;25.60;6451.20
55331;DHT22;58851;42.984;20.336;2023-03-14T05:34:33;25.70;6451.20
55331;DHT22;58851;42.984;20.336;2023-03-14T05:36:59;25.80;6451.20
55331;DHT22;58851;42.984;20.336;2023-03-14T05:39:24;25.80;6451.20
55331;DHT22;58851;42.984;20.336;2023-03-14T05:41:50;25.80;6451.20
55331;DHT22;58851;42.984;20.336;2023-03-14T05:44:16;25.70;6451.20
55331;DHT22;58851;42.984;20.336;2023-03-14T05:46:42;25.70;6451.20
55331;DHT22;58851;42.984;20.336;2023-03-14T05:49:08;25.70;6451.20
55331;DHT22;58851;42.984;20.336;2023-03-14T05:51:34;25.80;6451.20
55331;DHT22;58851;42.984;20.336;2023-03-14T05:53:59;25.60;6451.20
55331;DHT22;58851;42.984;20.336;2023-03-14T05:56:25;25.70;6451.20
55331;DHT22;58851;42.984;20.336;2023-03-14T05:58:51;26.00;6451.20
55331;DHT22;58851;42.984;20.336;2023-03-14T06:01:16;26.20;6451.20
55331;DHT22;58851;42.984;20.336;2023-03-14T06:03:42;26.40;6451.20
55331;DHT22;58851;42.984;20.336;2023-03-14T06:06:08;51.20;6476.80
55331;DHT22;58851;42.984;20.336;2023-03-14T06:08:34;51.30;6476.80
55331;DHT22;58851;42.984;20.336;2023-03-14T06:11:00;51.40;6476.80
55331;DHT22;58851;42.984;20.336;2023-03-14T06:13:28;51.60;6476.80
55331;DHT22;58851;42.984;20.336;2023-03-14T06:15:53;51.70;6476.80
55331;DHT22;58851;42.984;20.336;2023-03-14T06:18:19;51.80;6476.80
55331;DHT22;58851;42.984;20.336;2023-03-14T06:20:45;52.00;6476.80
55331;DHT22;58851;42.984;20.336;2023-03-14T06:23:10;52.00;6476.80
55331;DHT22;58851;42.984;20.336;2023-03-14T06:25:37;76.80;6476.80
55331;DHT22;58851;42.984;20.336;2023-03-14T06:28:03;76.90;6476.80
55331;DHT22;58851;42.984;20.336;2023-03-14T06:30:29;76.90;6476.80
55331;DHT22;58851;42.984;20.336;2023-03-14T06:32:54;76.90;6476.80
55331;DHT22;58851;42.984;20.336;2023-03-14T06:35:21;77.10;6476.80
55331;DHT22;58851;42.984;20.336;2023-03-14T06:37:47;77.20;6476.80
55331;DHT22;58851;42.984;20.336;2023-03-14T06:40:13;77.30;6476.80
55331;DHT22;58851;42.984;20.336;2023-03-14T06:42:43;77.40;6476.80
55331;DHT22;58851;42.984;20.336;2023-03-14T06:45:09;77.50;6476.80
55331;DHT22;58851;42.984;20.336;2023-03-14T06:47:35;77.60;6476.80
55331;DHT22;58851;42.984;20.336;2023-03-14T06:50:01;77.60;6476.80
55331;DHT22;58851;42.984;20.336;2023-03-14T06:52:27;102.40;6476.80
55331;DHT22;58851;42.984;20.336;2023-03-14T06:54:53;102.50;6476.80
55331;DHT22;58851;42.984;20.336;2023-03-14T06:57:19;102.60;6476.80
55331;DHT22;58851;42.984;20.336;2023-03-14T06:59:44;102.80;6476.80
55331;DHT22;58851;42.984;20.336;2023-03-14T07:02:13;103.00;6476.80
55331;DHT22;58851;42.984;20.336;2023-03-14T07:04:39;103.20;6476.80
55331;DHT22;58851;42.984;20.336;2023-03-14T07:07:05;128.00;512.00
55331;DHT22;58851;42.984;20.336;2023-03-14T07:09:32;128.00;409.60
55331;DHT22;58851;42.984;20.336;2023-03-14T07:11:58;128.10;281.60
55331;DHT22;58851;42.984;20.336;2023-03-14T07:14:24;128.30;230.40
55331;DHT22;58851;42.984;20.336;2023-03-14T07:16:50;128.20;332.80
55331;DHT22;58851;42.984;20.336;2023-03-14T07:19:15;128.10;204.80
55331;DHT22;58851;42.984;20.336;2023-03-14T07:21:41;128.50;153.60
55331;DHT22;58851;42.984;20.336;2023-03-14T07:24:07;128.60;6502.40
55331;DHT22;58851;42.984;20.336;2023-03-14T07:26:33;128.70;6528.00
55331;DHT22;58851;42.984;20.336;2023-03-14T07:28:59;128.80;6502.40
55331;DHT22;58851;42.984;20.336;2023-03-14T07:31:24;153.70;6528.00
55331;DHT22;58851;42.984;20.336;2023-03-14T07:33:50;153.80;6502.40
55331;DHT22;58851;42.984;20.336;2023-03-14T07:36:16;154.00;6502.40
55331;DHT22;58851;42.984;20.336;2023-03-14T07:38:42;154.00;6502.40
55331;DHT22;58851;42.984;20.336;2023-03-14T07:41:08;154.10;6502.40
55331;DHT22;58851;42.984;20.336;2023-03-14T07:43:34;154.00;6502.40
55331;DHT22;58851;42.984;20.336;2023-03-14T07:46:00;154.10;6502.40
55331;DHT22;58851;42.984;20.336;2023-03-14T07:48:27;154.10;6502.40
55331;DHT22;58851;42.984;20.336;2023-03-14T07:50:53;154.40;6502.40
55331;DHT22;58851;42.984;20.336;2023-03-14T07:53:20;154.40;6502.40
55331;DHT22;58851;42.984;20.336;2023-03-14T07:55:46;154.50;6502.40
55331;DHT22;58851;42.984;20.336;2023-03-14T07:58:13;179.30;6502.40
55331;DHT22;58851;42.984;20.336;2023-03-14T08:00:39;179.50;6502.40
55331;DHT22;58851;42.984;20.336;2023-03-14T08:03:05;179.60;6502.40
55331;DHT22;58851;42.984;20.336;2023-03-14T08:05:35;179.70;6502.40
55331;DHT22;58851;42.984;20.336;2023-03-14T08:08:01;180.10;6502.40
55331;DHT22;58851;42.984;20.336;2023-03-14T08:10:26;204.80;6502.40
55331;DHT22;58851;42.984;20.336;2023-03-14T08:12:54;204.80;6502.40
55331;DHT22;58851;42.984;20.336;2023-03-14T08:15:21;205.20;6502.40
55331;DHT22;58851;42.984;20.336;2023-03-14T08:17:47;205.40;6502.40
55331;DHT22;58851;42.984;20.336;2023-03-14T08:20:17;205.60;6502.40
55331;DHT22;58851;42.984;20.336;2023-03-14T08:22:43;230.40;6502.40
55331;DHT22;58851;42.984;20.336;2023-03-14T08:25:09;230.50;6502.40
55331;DHT22;58851;42.984;20.336;2023-03-14T08:27:36;230.70;6502.40
55331;DHT22;58851;42.984;20.336;2023-03-14T08:30:07;230.70;6502.40
55331;DHT22;58851;42.984;20.336;2023-03-14T08:32:33;230.70;6502.40
55331;DHT22;58851;42.984;20.336;2023-03-14T08:34:59;230.80;6502.40
55331;DHT22;58851;42.984;20.336;2023-03-14T08:37:25;230.90;6502.40
55331;DHT22;58851;42.984;20.336;2023-03-14T08:39:51;231.20;6502.40
55331;DHT22;58851;42.984;20.336;2023-03-14T08:42:18;231.20;6502.40
55331;DHT22;58851;42.984;20.336;2023-03-14T08:44:44;231.30;6502.40
55331;DHT22;58851;42.984;20.336;2023-03-14T08:47:10;231.00;6502.40
55331;DHT22;58851;42.984;20.336;2023-03-14T08:49:35;231.20;6502.40
55331;DHT22;58851;42.984;20.336;2023-03-14T08:52:03;256.10;6502.40
55331;DHT22;58851;42.984;20.336;2023-03-14T08:54:29;256.40;6502.40
55331;DHT22;58851;42.984;20.336;2023-03-14T08:56:55;256.80;6502.40
55331;DHT22;58851;42.984;20.336;2023-03-14T08:59:21;256.70;6502.40
55331;DHT22;58851;42.984;20.336;2023-03-14T09:01:46;256.70;6502.40
55331;DHT22;58851;42.984;20.336;2023-03-14T09:04:12;256.80;6502.40
55331;DHT22;58851;42.984;20.336;2023-03-14T09:06:39;281.60;6528.00
55331;DHT22;58851;42.984;20.336;2023-03-14T09:09:05;281.70;6528.00
55331;DHT22;58851;42.984;20.336;2023-03-14T09:11:31;281.80;6528.00
55331;DHT22;58851;42.984;20.336;2023-03-14T09:13:56;281.80;6528.00
55331;DHT22;58851;42.984;20.336;2023-03-14T09:16:22;281.80;6528.00
55331;DHT22;58851;42.984;20.336;2023-03-14T09:18:48;281.70;6528.00
55331;DHT22;58851;42.984;20.336;2023-03-14T09:21:14;281.90;6528.00
55331;DHT22;58851;42.984;20.336;2023-03-14T09:23:41;281.90;6528.00
55331;DHT22;58851;42.984;20.336;2023-03-14T09:26:07;282.00;6528.00
55331;DHT22;58851;42.984;20.336;2023-03-14T09:28:33;282.30;6528.00
55331;DHT22;58851;42.984;20.336;2023-03-14T09:31:09;282.50;6528.00
55331;DHT22;58851;42.984;20.336;2023-03-14T09:33:35;307.20;128.00
55331;DHT22;58851;42.984;20.336;2023-03-14T09:36:01;282.40;6528.00
55331;DHT22;58851;42.984;20.336;2023-03-14T09:38:28;282.50;6528.00
55331;DHT22;58851;42.984;20.336;2023-03-14T09:40:54;307.20;128.00
55331;DHT22;58851;42.984;20.336;2023-03-14T09:43:22;307.40;128.00
55331;DHT22;58851;42.984;20.336;2023-03-14T09:45:48;307.40;128.00
55331;DHT22;58851;42.984;20.336;2023-03-14T09:48:21;307.70;128.00
55331;DHT22;58851;42.984;20.336;2023-03-14T09:50:54;307.70;128.00
55331;DHT22;58851;42.984;20.336;2023-03-14T09:53:25;307.80;128.00
55331;DHT22;58851;42.984;20.336;2023-03-14T09:55:51;308.00;128.00
55331;DHT22;58851;42.984;20.336;2023-03-14T09:58:23;308.10;128.00
55331;DHT22;58851;42.984;20.336;2023-03-14T10:00:51;333.00;128.00
55331;DHT22;58851;42.984;20.336;2023-03-14T10:05:50;333.30;128.00
55331;DHT22;58851;42.984;20.336;2023-03-14T10:08:16;333.40;128.00
55331;DHT22;58851;42.984;20.336;2023-03-14T10:10:41;333.50;128.00
55331;DHT22;58851;42.984;20.336;2023-03-14T10:13:18;333.70;128.00
55331;DHT22;58851;42.984;20.336;2023-03-14T10:15:51;358.50;128.00
55331;DHT22;58851;42.984;20.336;2023-03-14T10:18:18;358.60;128.00
55331;DHT22;58851;42.984;20.336;2023-03-14T10:20:46;358.80;128.00
55331;DHT22;58851;42.984;20.336;2023-03-14T10:26:12;359.00;128.00
55331;DHT22;58851;42.984;20.336;2023-03-14T10:31:06;359.20;128.00
55331;DHT22;58851;42.984;20.336;2023-03-14T10:33:34;384.10;128.00
55331;DHT22;58851;42.984;20.336;2023-03-14T10:36:17;384.20;128.00
55331;DHT22;58851;42.984;20.336;2023-03-14T10:38:43;384.40;128.00
55331;DHT22;58851;42.984;20.336;2023-03-14T10:43:43;384.30;128.00
55331;DHT22;58851;42.984;20.336;2023-03-14T10:46:15;384.60;128.00
55331;DHT22;58851;42.984;20.336;2023-03-14T10:48:43;384.70;128.00
55331;DHT22;58851;42.984;20.336;2023-03-14T10:56:17;409.90;128.00
55331;DHT22;58851;42.984;20.336;2023-03-14T10:58:45;410.20;128.00
55331;DHT22;58851;42.984;20.336;2023-03-14T11:04:21;410.50;128.00
55331;DHT22;58851;42.984;20.336;2023-03-14T11:09:27;435.30;128.00
55331;DHT22;58851;42.984;20.336;2023-03-14T11:14:55;435.70;128.00
55331;DHT22;58851;42.984;20.336;2023-03-14T11:17:38;435.90;128.00
55331;DHT22;58851;42.984;20.336;2023-03-14T11:22:47;436.00;128.00
55331;DHT22;58851;42.984;20.336;2023-03-14T11:28:03;460.90;128.00
55331;DHT22;58851;42.984;20.336;2023-03-14T11:30:54;460.90;128.00
55331;DHT22;58851;42.984;20.336;2023-03-14T11:35:51;461.30;128.00
55331;DHT22;58851;42.984;20.336;2023-03-14T11:41:00;486.40;128.00
55331;DHT22;58851;42.984;20.336;2023-03-14T11:43:41;486.60;128.00
55331;DHT22;58851;42.984;20.336;2023-03-14T11:46:27;486.70;128.00
55331;DHT22;58851;42.984;20.336;2023-03-14T11:49:27;486.70;128.00
55331;DHT22;58851;42.984;20.336;2023-03-14T11:51:57;486.80;128.00
55331;DHT22;58851;42.984;20.336;2023-03-14T11:57:18;487.00;128.00
55331;DHT22;58851;42.984;20.336;2023-03-14T12:08:46;487.20;128.00
55331;DHT22;58851;42.984;20.336;2023-03-14T12:11:27;512.20;128.00
55331;DHT22;58851;42.984;20.336;2023-03-14T12:13:53;512.50;128.00
55331;DHT22;58851;42.984;20.336;2023-03-14T12:18:48;512.90;128.00
55331;DHT22;58851;42.984;20.336;2023-03-14T12:21:14;537.60;128.00
55331;DHT22;58851;42.984;20.336;2023-03-14T12:23:54;537.90;128.00
55331;DHT22;58851;42.984;20.336;2023-03-14T12:26:26;538.10;128.00
55331;DHT22;58851;42.984;20.336;2023-03-14T12:34:04;538.00;128.00
55331;DHT22;58851;42.984;20.336;2023-03-14T12:42:43;538.20;128.00
55331;DHT22;58851;42.984;20.336;2023-03-14T12:48:21;538.40;128.00
55331;DHT22;58851;42.984;20.336;2023-03-14T12:50:56;538.20;128.00
55331;DHT22;58851;42.984;20.336;2023-03-14T12:56:08;538.00;128.00
55331;DHT22;58851;42.984;20.336;2023-03-14T13:01:28;537.90;128.00
55331;DHT22;58851;42.984;20.336;2023-03-14T13:03:58;538.10;128.00
55331;DHT22;58851;42.984;20.336;2023-03-14T13:11:56;537.80;128.00
55331;DHT22;58851;42.984;20.336;2023-03-14T13:14:28;537.90;128.00
55331;DHT22;58851;42.984;20.336;2023-03-14T13:17:00;512.90;128.00
55331;DHT22;58851;42.984;20.336;2023-03-14T13:19:30;537.60;128.00
55331;DHT22;58851;42.984;20.336;2023-03-14T13:22:04;537.60;128.00
55331;DHT22;58851;42.984;20.336;2023-03-14T13:24:34;538.10;128.00
55331;DHT22;58851;42.984;20.336;2023-03-14T13:27:00;538.10;128.00
55331;DHT22;58851;42.984;20.336;2023-03-14T13:29:29;538.10;128.00
55331;DHT22;58851;42.984;20.336;2023-03-14T13:32:43;538.00;128.00
55331;DHT22;58851;42.984;20.336;2023-03-14T13:34:43;538.20;128.00
55331;DHT22;58851;42.984;20.336;2023-03-14T13:37:22;538.50;128.00
55331;DHT22;58851;42.984;20.336;2023-03-14T13:39:53;538.50;128.00
55331;DHT22;58851;42.984;20.336;2023-03-14T13:42:24;563.30;128.00
55331;DHT22;58851;42.984;20.336;2023-03-14T13:44:52;563.20;128.00
55331;DHT22;58851;42.984;20.336;2023-03-14T13:47:20;563.20;128.00
55331;DHT22;58851;42.984;20.336;2023-03-14T13:49:48;538.40;128.00
55331;DHT22;58851;42.984;20.336;2023-03-14T13:52:40;563.20;128.00
55331;DHT22;58851;42.984;20.336;2023-03-14T13:55:15;538.50;128.00
55331;DHT22;58851;42.984;20.336;2023-03-14T13:57:53;563.40;128.00
55331;DHT22;58851;42.984;20.336;2023-03-14T14:00:24;563.30;128.00
55331;DHT22;58851;42.984;20.336;2023-03-14T14:02:57;563.60;128.00
55331;DHT22;58851;42.984;20.336;2023-03-14T14:05:27;563.30;128.00
55331;DHT22;58851;42.984;20.336;2023-03-14T14:07:53;563.70;128.00
55331;DHT22;58851;42.984;20.336;2023-03-14T14:10:20;563.30;128.00
55331;DHT22;58851;42.984;20.336;2023-03-14T14:12:50;538.20;128.00
55331;DHT22;58851;42.984;20.336;2023-03-14T14:15:23;537.90;128.00
55331;DHT22;58851;42.984;20.336;2023-03-14T14:17:54;512.80;128.00
55331;DHT22;58851;42.984;20.336;2023-03-14T14:20:33;512.40;128.00
55331;DHT22;58851;42.984;20.336;2023-03-14T14:23:05;512.10;128.00
55331;DHT22;58851;42.984;20.336;2023-03-14T14:25:32;487.30;128.00
55331;DHT22;58851;42.984;20.336;2023-03-14T14:27:58;512.60;128.00
55331;DHT22;58851;42.984;20.336;2023-03-14T14:30:31;512.80;128.00
55331;DHT22;58851;42.984;20.336;2023-03-14T14:33:21;512.50;128.00
55331;DHT22;58851;42.984;20.336;2023-03-14T14:36:18;512.60;128.00
55331;DHT22;58851;42.984;20.336;2023-03-14T14:38:58;487.30;128.00
55331;DHT22;58851;42.984;20.336;2023-03-14T14:41:29;512.20;128.00
55331;DHT22;58851;42.984;20.336;2023-03-14T14:43:56;512.10;128.00
55331;DHT22;58851;42.984;20.336;2023-03-14T14:46:22;512.30;128.00
55331;DHT22;58851;42.984;20.336;2023-03-14T14:48:48;512.00;128.00
55331;DHT22;58851;42.984;20.336;2023-03-14T14:51:32;487.30;128.00
55331;DHT22;58851;42.984;20.336;2023-03-14T14:54:04;487.30;128.00
55331;DHT22;58851;42.984;20.336;2023-03-14T14:56:35;512.00;128.00
55331;DHT22;58851;42.984;20.336;2023-03-14T14:59:02;487.10;128.00
55331;DHT22;58851;42.984;20.336;2023-03-14T15:01:38;487.20;128.00
55331;DHT22;58851;42.984;20.336;2023-03-14T15:04:12;512.30;128.00
55331;DHT22;58851;42.984;20.336;2023-03-14T15:06:43;512.10;128.00
55331;DHT22;58851;42.984;20.336;2023-03-14T15:09:10;487.30;128.00
55331;DHT22;58851;42.984;20.336;2023-03-14T15:11:37;487.10;128.00
55331;DHT22;58851;42.984;20.336;2023-03-14T15:14:03;486.70;128.00
55331;DHT22;58851;42.984;20.336;2023-03-14T15:16:30;461.70;128.00
55331;DHT22;58851;42.984;20.336;2023-03-14T15:18:59;461.60;128.00
55331;DHT22;58851;42.984;20.336;2023-03-14T15:21:27;461.40;128.00
55331;DHT22;58851;42.984;20.336;2023-03-14T15:23:53;460.90;128.00
55331;DHT22;58851;42.984;20.336;2023-03-14T15:26:26;460.80;128.00
55331;DHT22;58851;42.984;20.336;2023-03-14T15:28:53;436.00;128.00
55331;DHT22;58851;42.984;20.336;2023-03-14T15:31:20;435.80;128.00
55331;DHT22;58851;42.984;20.336;2023-03-14T15:33:49;435.40;128.00
55331;DHT22;58851;42.984;20.336;2023-03-14T15:36:22;435.20;128.00
55331;DHT22;58851;42.984;20.336;2023-03-14T15:38:50;410.50;128.00
55331;DHT22;58851;42.984;20.336;2023-03-14T15:41:16;410.50;128.00
55331;DHT22;58851;42.984;20.336;2023-03-14T15:43:42;410.40;128.00
55331;DHT22;58851;42.984;20.336;2023-03-14T15:46:09;410.30;128.00
55331;DHT22;58851;42.984;20.336;2023-03-14T15:48:35;410.20;128.00
55331;DHT22;58851;42.984;20.336;2023-03-14T15:51:01;409.90;128.00
55331;DHT22;58851;42.984;20.336;2023-03-14T15:53:27;409.60;128.00
55331;DHT22;58851;42.984;20.336;2023-03-14T15:55:53;409.60;128.00
55331;DHT22;58851;42.984;20.336;2023-03-14T15:58:19;384.90;128.00
55331;DHT22;58851;42.984;20.336;2023-03-14T16:00:45;384.80;128.00
55331;DHT22;58851;42.984;20.336;2023-03-14T16:03:12;384.70;128.00
55331;DHT22;58851;42.984;20.336;2023-03-14T16:05:39;384.60;128.00
55331;DHT22;58851;42.984;20.336;2023-03-14T16:08:05;384.60;128.00
55331;DHT22;58851;42.984;20.336;2023-03-14T16:10:32;384.50;128.00
55331;DHT22;58851;42.984;20.336;2023-03-14T16:12:58;384.30;128.00